JP-0078 weather

Hyogo Prefectural Awaji Medical Care Center Helipad
Sumoto, Hyōgo Prefecture, Japan

Public forecast

Using degrees Celsius for public forecast. Weather courtesy of forecast.io.

Closest aviation weather report (METAR) to Hyogo Prefectural Awaji Medical Care Center Helipad

Closest report is Kansai International Airport, 17.9 nm (33.2 km) ENE. Retrieved 2019/10/20 04:30 UTC (2 minutes ago):

RJBB 200430Z 02011KT 9999 FEW030 BKN/// 24/16 Q1017 NOSIG

Closest aviation forecast (TAF) to Hyogo Prefectural Awaji Medical Care Center Helipad

Closest forecast is Kansai International Airport, 17.9 nm (33.2 km) ENE. Retrieved 2019-10-20 00:00 UTC (5 hours ago):

TAF RJBB 192307Z 2000/2106 01011KT 9999 FEW030